sensor_id;sensor_type;location;lat;lon;timestamp;pressure;altitude;pressure_sealevel;temperature;humidity
54554;BME280;40450;55.848;-3.572;2023-02-13T00:02:29;101091.66;;;6.48;74.27
54554;BME280;40450;55.848;-3.572;2023-02-13T00:05:00;101087.03;;;6.87;73.24
54554;BME280;40450;55.848;-3.572;2023-02-13T00:07:30;101088.93;;;7.88;73.06
54554;BME280;40450;55.848;-3.572;2023-02-13T00:10:00;101089.19;;;8.61;69.62
54554;BME280;40450;55.848;-3.572;2023-02-13T00:12:31;101087.82;;;8.52;68.04
54554;BME280;40450;55.848;-3.572;2023-02-13T00:15:02;101083.31;;;8.62;68.95
54554;BME280;40450;55.848;-3.572;2023-02-13T00:17:32;101087.25;;;8.19;69.11
54554;BME280;40450;55.848;-3.572;2023-02-13T00:20:03;101090.18;;;8.54;69.66
54554;BME280;40450;55.848;-3.572;2023-02-13T00:22:34;101093.74;;;8.33;68.08
54554;BME280;40450;55.848;-3.572;2023-02-13T00:25:04;101096.28;;;8.44;69.06
54554;BME280;40450;55.848;-3.572;2023-02-13T00:27:33;101099.23;;;7.98;69.10
54554;BME280;40450;55.848;-3.572;2023-02-13T00:30:05;101101.20;;;8.42;67.40
54554;BME280;40450;55.848;-3.572;2023-02-13T00:32:34;101100.70;;;8.61;67.14
54554;BME280;40450;55.848;-3.572;2023-02-13T00:35:05;101101.76;;;8.37;67.54
54554;BME280;40450;55.848;-3.572;2023-02-13T00:37:35;101096.90;;;8.41;67.54
54554;BME280;40450;55.848;-3.572;2023-02-13T00:40:07;101090.27;;;8.66;67.27
54554;BME280;40450;55.848;-3.572;2023-02-13T00:42:36;101086.67;;;8.76;66.96
54554;BME280;40450;55.848;-3.572;2023-02-13T00:45:08;101079.67;;;9.14;66.76
54554;BME280;40450;55.848;-3.572;2023-02-13T00:47:37;101081.29;;;9.68;66.63
54554;BME280;40450;55.848;-3.572;2023-02-13T00:50:08;101076.70;;;9.00;65.46
54554;BME280;40450;55.848;-3.572;2023-02-13T00:52:38;101080.47;;;8.70;66.16
54554;BME280;40450;55.848;-3.572;2023-02-13T00:55:08;101081.67;;;7.96;68.20
54554;BME280;40450;55.848;-3.572;2023-02-13T00:57:39;101082.44;;;7.81;68.77
54554;BME280;40450;55.848;-3.572;2023-02-13T01:00:09;101072.85;;;7.95;68.74
54554;BME280;40450;55.848;-3.572;2023-02-13T01:02:39;101074.61;;;8.31;68.50
54554;BME280;40450;55.848;-3.572;2023-02-13T01:05:10;101066.00;;;8.80;67.63
54554;BME280;40450;55.848;-3.572;2023-02-13T01:07:40;101066.40;;;8.51;66.61
54554;BME280;40450;55.848;-3.572;2023-02-13T01:10:10;101054.38;;;9.00;67.13
54554;BME280;40450;55.848;-3.572;2023-02-13T01:12:41;101053.66;;;8.90;65.58
54554;BME280;40450;55.848;-3.572;2023-02-13T01:15:12;101049.67;;;9.46;66.90
54554;BME280;40450;55.848;-3.572;2023-02-13T01:17:43;101050.42;;;9.86;66.30
54554;BME280;40450;55.848;-3.572;2023-02-13T01:20:13;101049.93;;;8.72;65.70
54554;BME280;40450;55.848;-3.572;2023-02-13T01:22:43;101044.86;;;9.52;65.12
54554;BME280;40450;55.848;-3.572;2023-02-13T01:25:14;101042.62;;;8.87;63.81
54554;BME280;40450;55.848;-3.572;2023-02-13T01:27:44;101045.58;;;8.31;64.82
54554;BME280;40450;55.848;-3.572;2023-02-13T01:30:16;101049.04;;;8.06;65.01
54554;BME280;40450;55.848;-3.572;2023-02-13T01:32:45;101042.49;;;8.25;65.47
54554;BME280;40450;55.848;-3.572;2023-02-13T01:35:16;101045.12;;;7.94;65.79
54554;BME280;40450;55.848;-3.572;2023-02-13T01:37:46;101042.44;;;7.67;66.66
54554;BME280;40450;55.848;-3.572;2023-02-13T01:40:17;101041.75;;;7.66;66.03
54554;BME280;40450;55.848;-3.572;2023-02-13T01:42:47;101040.33;;;7.24;67.68
54554;BME280;40450;55.848;-3.572;2023-02-13T01:45:22;101038.82;;;7.46;66.34
54554;BME280;40450;55.848;-3.572;2023-02-13T01:47:51;101031.28;;;7.29;67.56
54554;BME280;40450;55.848;-3.572;2023-02-13T01:50:23;101029.96;;;7.29;67.40
54554;BME280;40450;55.848;-3.572;2023-02-13T01:52:51;101030.47;;;7.49;66.72
54554;BME280;40450;55.848;-3.572;2023-02-13T01:55:18;101026.25;;;7.52;67.20
54554;BME280;40450;55.848;-3.572;2023-02-13T01:57:52;101033.92;;;8.12;66.82
54554;BME280;40450;55.848;-3.572;2023-02-13T02:00:20;101028.83;;;8.61;65.68
54554;BME280;40450;55.848;-3.572;2023-02-13T02:02:52;101026.27;;;8.96;65.52
54554;BME280;40450;55.848;-3.572;2023-02-13T02:05:22;101023.03;;;9.21;64.89
54554;BME280;40450;55.848;-3.572;2023-02-13T02:07:51;101025.49;;;9.11;62.39
54554;BME280;40450;55.848;-3.572;2023-02-13T02:10:22;101024.27;;;8.85;63.01
54554;BME280;40450;55.848;-3.572;2023-02-13T02:12:57;101026.98;;;8.31;63.18
54554;BME280;40450;55.848;-3.572;2023-02-13T02:15:22;101025.54;;;7.60;64.03
54554;BME280;40450;55.848;-3.572;2023-02-13T02:17:53;101021.71;;;7.74;64.69
54554;BME280;40450;55.848;-3.572;2023-02-13T02:20:42;101018.59;;;7.93;64.76
54554;BME280;40450;55.848;-3.572;2023-02-13T02:30:37;101013.60;;;8.36;62.18
54554;BME280;40450;55.848;-3.572;2023-02-13T02:33:02;101012.96;;;7.58;63.78
54554;BME280;40450;55.848;-3.572;2023-02-13T02:35:33;101016.55;;;7.01;65.22
54554;BME280;40450;55.848;-3.572;2023-02-13T02:38:07;101015.70;;;5.97;68.29
54554;BME280;40450;55.848;-3.572;2023-02-13T02:40:32;101010.08;;;6.61;66.92
54554;BME280;40450;55.848;-3.572;2023-02-13T02:43:07;101009.65;;;7.08;66.35
54554;BME280;40450;55.848;-3.572;2023-02-13T02:45:34;101007.76;;;7.66;65.71
54554;BME280;40450;55.848;-3.572;2023-02-13T02:48:00;101005.49;;;7.46;65.26
54554;BME280;40450;55.848;-3.572;2023-02-13T02:50:34;101004.39;;;7.06;65.53
54554;BME280;40450;55.848;-3.572;2023-02-13T02:53:08;101005.76;;;6.47;66.63
54554;BME280;40450;55.848;-3.572;2023-02-13T02:55:35;101003.53;;;6.42;66.97
54554;BME280;40450;55.848;-3.572;2023-02-13T02:58:07;101003.39;;;6.45;67.30
54554;BME280;40450;55.848;-3.572;2023-02-13T03:00:32;101011.63;;;5.33;70.54
54554;BME280;40450;55.848;-3.572;2023-02-13T03:03:03;101012.76;;;4.71;71.28
54554;BME280;40450;55.848;-3.572;2023-02-13T03:05:33;101012.62;;;5.57;70.62
54554;BME280;40450;55.848;-3.572;2023-02-13T03:08:03;101010.43;;;5.74;70.43
54554;BME280;40450;55.848;-3.572;2023-02-13T03:10:36;101012.00;;;5.53;70.27
54554;BME280;40450;55.848;-3.572;2023-02-13T03:13:06;101007.50;;;6.09;69.09
54554;BME280;40450;55.848;-3.572;2023-02-13T03:15:39;100998.00;;;6.39;68.58
54554;BME280;40450;55.848;-3.572;2023-02-13T03:18:04;100998.37;;;7.04;68.36
54554;BME280;40450;55.848;-3.572;2023-02-13T03:20:42;101004.36;;;5.49;68.80
54554;BME280;40450;55.848;-3.572;2023-02-13T03:23:11;101000.67;;;5.19;69.47
54554;BME280;40450;55.848;-3.572;2023-02-13T03:25:40;101003.66;;;4.81;70.48
54554;BME280;40450;55.848;-3.572;2023-02-13T03:28:11;100997.22;;;4.51;71.28
54554;BME280;40450;55.848;-3.572;2023-02-13T03:30:47;100999.38;;;5.14;70.37
54554;BME280;40450;55.848;-3.572;2023-02-13T03:33:19;101001.42;;;5.38;69.11
54554;BME280;40450;55.848;-3.572;2023-02-13T03:35:44;100999.33;;;5.41;69.77
54554;BME280;40450;55.848;-3.572;2023-02-13T03:38:13;100990.24;;;6.09;69.47
54554;BME280;40450;55.848;-3.572;2023-02-13T03:40:43;100984.97;;;6.38;68.36
54554;BME280;40450;55.848;-3.572;2023-02-13T03:43:12;100981.13;;;6.54;67.45
54554;BME280;40450;55.848;-3.572;2023-02-13T03:45:44;100980.85;;;6.61;67.03
54554;BME280;40450;55.848;-3.572;2023-02-13T03:48:10;100982.32;;;6.63;67.60
54554;BME280;40450;55.848;-3.572;2023-02-13T03:50:42;100990.68;;;5.78;67.53
54554;BME280;40450;55.848;-3.572;2023-02-13T03:53:12;100986.05;;;5.89;68.21
54554;BME280;40450;55.848;-3.572;2023-02-13T03:55:43;100984.56;;;6.33;68.31
54554;BME280;40450;55.848;-3.572;2023-02-13T03:58:14;100986.91;;;5.98;68.73
54554;BME280;40450;55.848;-3.572;2023-02-13T04:00:45;100982.40;;;5.83;67.48
54554;BME280;40450;55.848;-3.572;2023-02-13T04:03:14;100986.16;;;5.64;68.74
54554;BME280;40450;55.848;-3.572;2023-02-13T04:05:46;100989.52;;;5.59;68.30
54554;BME280;40450;55.848;-3.572;2023-02-13T04:08:13;100988.74;;;5.26;68.91
54554;BME280;40450;55.848;-3.572;2023-02-13T04:10:49;100988.51;;;5.13;69.58
54554;BME280;40450;55.848;-3.572;2023-02-13T04:13:18;100990.06;;;5.48;69.02
54554;BME280;40450;55.848;-3.572;2023-02-13T04:15:49;100984.48;;;5.76;68.03
54554;BME280;40450;55.848;-3.572;2023-02-13T04:18:19;100976.73;;;5.99;67.44
54554;BME280;40450;55.848;-3.572;2023-02-13T04:20:46;100981.11;;;5.96;67.74
54554;BME280;40450;55.848;-3.572;2023-02-13T04:23:16;100980.78;;;5.86;67.42
54554;BME280;40450;55.848;-3.572;2023-02-13T04:25:49;100976.36;;;6.43;67.63
54554;BME280;40450;55.848;-3.572;2023-02-13T04:28:17;100974.65;;;6.86;67.37
54554;BME280;40450;55.848;-3.572;2023-02-13T04:30:48;100971.88;;;6.75;66.11
54554;BME280;40450;55.848;-3.572;2023-02-13T04:33:18;100975.50;;;6.62;65.55
54554;BME280;40450;55.848;-3.572;2023-02-13T04:35:48;100979.23;;;6.14;65.79
54554;BME280;40450;55.848;-3.572;2023-02-13T04:38:19;100986.62;;;5.86;66.00
54554;BME280;40450;55.848;-3.572;2023-02-13T04:40:49;100989.15;;;5.69;66.64
54554;BME280;40450;55.848;-3.572;2023-02-13T04:43:20;100984.27;;;5.00;67.67
54554;BME280;40450;55.848;-3.572;2023-02-13T04:45:51;100982.92;;;4.64;69.09
54554;BME280;40450;55.848;-3.572;2023-02-13T04:48:21;100983.02;;;4.48;69.62
54554;BME280;40450;55.848;-3.572;2023-02-13T04:50:51;100991.81;;;3.88;74.45
54554;BME280;40450;55.848;-3.572;2023-02-13T04:53:22;100988.51;;;3.68;75.34
54554;BME280;40450;55.848;-3.572;2023-02-13T04:55:52;100990.08;;;3.58;74.05
54554;BME280;40450;55.848;-3.572;2023-02-13T04:58:23;100988.12;;;2.98;76.12
54554;BME280;40450;55.848;-3.572;2023-02-13T05:00:53;100986.67;;;2.57;78.13
54554;BME280;40450;55.848;-3.572;2023-02-13T05:03:24;100982.76;;;2.98;76.77
54554;BME280;40450;55.848;-3.572;2023-02-13T05:05:54;100982.31;;;3.08;76.94
54554;BME280;40450;55.848;-3.572;2023-02-13T05:08:25;100977.98;;;3.61;75.27
54554;BME280;40450;55.848;-3.572;2023-02-13T05:10:55;100982.31;;;3.74;74.28
54554;BME280;40450;55.848;-3.572;2023-02-13T05:13:26;100980.43;;;3.76;73.77
54554;BME280;40450;55.848;-3.572;2023-02-13T05:15:56;100975.64;;;2.99;77.75
54554;BME280;40450;55.848;-3.572;2023-02-13T05:18:26;100980.02;;;3.23;76.90
54554;BME280;40450;55.848;-3.572;2023-02-13T05:20:56;100975.62;;;3.64;76.90
54554;BME280;40450;55.848;-3.572;2023-02-13T05:23:26;100972.19;;;4.56;75.60
54554;BME280;40450;55.848;-3.572;2023-02-13T05:25:57;100970.23;;;5.33;75.42
54554;BME280;40450;55.848;-3.572;2023-02-13T05:28:28;100971.95;;;4.55;72.59
54554;BME280;40450;55.848;-3.572;2023-02-13T05:30:58;100962.78;;;3.88;72.82
54554;BME280;40450;55.848;-3.572;2023-02-13T05:33:29;100970.86;;;4.50;72.80
54554;BME280;40450;55.848;-3.572;2023-02-13T05:35:59;100971.17;;;5.08;72.99
54554;BME280;40450;55.848;-3.572;2023-02-13T05:38:29;100962.53;;;5.64;72.61
54554;BME280;40450;55.848;-3.572;2023-02-13T05:41:00;100966.83;;;5.20;70.56
54554;BME280;40450;55.848;-3.572;2023-02-13T05:43:30;100968.86;;;4.85;71.12
54554;BME280;40450;55.848;-3.572;2023-02-13T05:46:03;100966.67;;;4.68;72.00
54554;BME280;40450;55.848;-3.572;2023-02-13T05:48:31;100962.36;;;4.66;71.94
54554;BME280;40450;55.848;-3.572;2023-02-13T05:51:01;100961.17;;;5.08;72.93
54554;BME280;40450;55.848;-3.572;2023-02-13T05:53:32;100958.57;;;4.69;72.11
54554;BME280;40450;55.848;-3.572;2023-02-13T05:56:03;100957.27;;;5.31;72.90
54554;BME280;40450;55.848;-3.572;2023-02-13T05:58:33;100955.40;;;5.48;72.00
54554;BME280;40450;55.848;-3.572;2023-02-13T06:01:03;100960.46;;;5.23;72.12
54554;BME280;40450;55.848;-3.572;2023-02-13T06:03:33;100951.82;;;5.88;71.76
54554;BME280;40450;55.848;-3.572;2023-02-13T06:06:04;100953.71;;;6.23;71.59
54554;BME280;40450;55.848;-3.572;2023-02-13T06:08:33;100960.71;;;6.02;70.32
54554;BME280;40450;55.848;-3.572;2023-02-13T06:11:04;100964.13;;;6.28;69.51
54554;BME280;40450;55.848;-3.572;2023-02-13T06:13:34;100970.99;;;6.65;69.78
54554;BME280;40450;55.848;-3.572;2023-02-13T06:16:06;100967.24;;;7.01;69.88
54554;BME280;40450;55.848;-3.572;2023-02-13T06:18:37;100960.68;;;7.01;68.87
54554;BME280;40450;55.848;-3.572;2023-02-13T06:21:07;100961.25;;;6.89;68.11
54554;BME280;40450;55.848;-3.572;2023-02-13T06:23:37;100958.66;;;6.95;69.62
54554;BME280;40450;55.848;-3.572;2023-02-13T06:26:08;100963.18;;;7.30;68.60
54554;BME280;40450;55.848;-3.572;2023-02-13T06:28:37;100967.13;;;6.70;69.31
54554;BME280;40450;55.848;-3.572;2023-02-13T06:31:08;100976.80;;;5.55;71.06
54554;BME280;40450;55.848;-3.572;2023-02-13T06:33:38;100975.52;;;7.02;69.07
54554;BME280;40450;55.848;-3.572;2023-02-13T06:36:09;100975.73;;;7.40;68.67
54554;BME280;40450;55.848;-3.572;2023-02-13T06:38:39;100980.13;;;7.73;66.83
54554;BME280;40450;55.848;-3.572;2023-02-13T06:41:09;100977.66;;;7.81;67.07
54554;BME280;40450;55.848;-3.572;2023-02-13T06:43:40;100976.24;;;7.73;66.92
54554;BME280;40450;55.848;-3.572;2023-02-13T06:46:10;100972.51;;;7.74;67.50
54554;BME280;40450;55.848;-3.572;2023-02-13T06:48:41;100972.28;;;6.49;68.83
54554;BME280;40450;55.848;-3.572;2023-02-13T06:51:11;100977.62;;;7.02;68.60
54554;BME280;40450;55.848;-3.572;2023-02-13T06:53:42;100973.81;;;7.38;68.08
54554;BME280;40450;55.848;-3.572;2023-02-13T06:56:12;100970.10;;;8.19;67.39
54554;BME280;40450;55.848;-3.572;2023-02-13T06:58:42;100974.30;;;7.34;66.81
54554;BME280;40450;55.848;-3.572;2023-02-13T07:01:12;100972.16;;;7.72;67.66
54554;BME280;40450;55.848;-3.572;2023-02-13T07:03:43;100969.26;;;7.20;66.42
54554;BME280;40450;55.848;-3.572;2023-02-13T07:06:16;100972.29;;;6.81;67.56
54554;BME280;40450;55.848;-3.572;2023-02-13T07:08:43;100971.80;;;6.49;68.94
54554;BME280;40450;55.848;-3.572;2023-02-13T07:11:17;100967.82;;;6.20;69.93
54554;BME280;40450;55.848;-3.572;2023-02-13T07:13:44;100976.76;;;5.54;73.82
54554;BME280;40450;55.848;-3.572;2023-02-13T07:16:16;100973.46;;;5.92;72.02
54554;BME280;40450;55.848;-3.572;2023-02-13T07:18:46;100983.19;;;5.48;74.39
54554;BME280;40450;55.848;-3.572;2023-02-13T07:21:16;100980.62;;;5.59;75.06
54554;BME280;40450;55.848;-3.572;2023-02-13T07:23:47;100978.26;;;6.14;74.06
54554;BME280;40450;55.848;-3.572;2023-02-13T07:26:17;100977.16;;;6.77;73.13
54554;BME280;40450;55.848;-3.572;2023-02-13T07:28:48;100976.35;;;6.44;73.47
54554;BME280;40450;55.848;-3.572;2023-02-13T07:31:19;100978.84;;;6.96;72.97
54554;BME280;40450;55.848;-3.572;2023-02-13T07:33:50;100981.59;;;7.65;73.09
54554;BME280;40450;55.848;-3.572;2023-02-13T07:36:19;100984.38;;;8.29;71.80
54554;BME280;40450;55.848;-3.572;2023-02-13T07:38:50;100984.34;;;8.62;70.75
54554;BME280;40450;55.848;-3.572;2023-02-13T07:41:21;100977.99;;;8.61;68.94
54554;BME280;40450;55.848;-3.572;2023-02-13T07:43:51;100977.51;;;7.91;69.01
54554;BME280;40450;55.848;-3.572;2023-02-13T07:46:22;100981.10;;;7.38;70.29
54554;BME280;40450;55.848;-3.572;2023-02-13T07:48:52;100980.04;;;6.72;71.83
54554;BME280;40450;55.848;-3.572;2023-02-13T07:51:22;100979.40;;;5.83;75.42
54554;BME280;40450;55.848;-3.572;2023-02-13T07:53:52;100977.58;;;5.91;74.74
54554;BME280;40450;55.848;-3.572;2023-02-13T07:56:23;100980.02;;;6.61;73.92
54554;BME280;40450;55.848;-3.572;2023-02-13T07:58:54;100986.13;;;6.83;73.99
54554;BME280;40450;55.848;-3.572;2023-02-13T08:01:23;100994.58;;;5.99;76.49
54554;BME280;40450;55.848;-3.572;2023-02-13T08:03:54;100991.82;;;6.36;75.87
54554;BME280;40450;55.848;-3.572;2023-02-13T08:06:24;100988.97;;;6.49;75.62
54554;BME280;40450;55.848;-3.572;2023-02-13T08:08:54;100995.26;;;6.78;74.89
54554;BME280;40450;55.848;-3.572;2023-02-13T08:11:30;100990.79;;;7.12;74.32
54554;BME280;40450;55.848;-3.572;2023-02-13T08:13:55;100987.04;;;7.21;73.47
54554;BME280;40450;55.848;-3.572;2023-02-13T08:16:26;100989.74;;;7.23;73.56
54554;BME280;40450;55.848;-3.572;2023-02-13T08:18:57;100985.38;;;6.37;75.67
54554;BME280;40450;55.848;-3.572;2023-02-13T08:21:27;100981.45;;;6.28;76.15
54554;BME280;40450;55.848;-3.572;2023-02-13T08:23:58;100984.43;;;6.73;75.72
54554;BME280;40450;55.848;-3.572;2023-02-13T08:26:30;100989.74;;;7.55;75.20
54554;BME280;40450;55.848;-3.572;2023-02-13T08:28:59;100984.83;;;8.37;73.46
54554;BME280;40450;55.848;-3.572;2023-02-13T08:31:29;100983.90;;;9.03;72.61
54554;BME280;40450;55.848;-3.572;2023-02-13T08:34:00;100987.37;;;9.46;71.77
54554;BME280;40450;55.848;-3.572;2023-02-13T08:36:30;100990.89;;;9.25;68.44
54554;BME280;40450;55.848;-3.572;2023-02-13T08:39:00;100986.86;;;8.52;68.22
54554;BME280;40450;55.848;-3.572;2023-02-13T08:41:30;100985.66;;;8.56;70.05
54554;BME280;40450;55.848;-3.572;2023-02-13T08:44:00;100991.87;;;7.98;70.39
54554;BME280;40450;55.848;-3.572;2023-02-13T08:46:30;100989.37;;;8.20;70.71
54554;BME280;40450;55.848;-3.572;2023-02-13T08:49:01;100982.52;;;7.99;71.02
54554;BME280;40450;55.848;-3.572;2023-02-13T08:51:32;100986.11;;;7.75;71.78
54554;BME280;40450;55.848;-3.572;2023-02-13T08:54:02;100981.27;;;7.49;73.14
54554;BME280;40450;55.848;-3.572;2023-02-13T08:56:32;100974.73;;;7.25;73.48
54554;BME280;40450;55.848;-3.572;2023-02-13T08:59:03;100977.69;;;7.22;74.45
54554;BME280;40450;55.848;-3.572;2023-02-13T09:01:33;100973.05;;;6.78;75.06
54554;BME280;40450;55.848;-3.572;2023-02-13T09:04:04;100963.89;;;6.45;76.57
54554;BME280;40450;55.848;-3.572;2023-02-13T09:06:34;100962.46;;;6.39;76.13
54554;BME280;40450;55.848;-3.572;2023-02-13T09:09:05;100963.73;;;6.37;76.25
54554;BME280;40450;55.848;-3.572;2023-02-13T09:11:35;100960.11;;;6.94;75.34
54554;BME280;40450;55.848;-3.572;2023-02-13T09:14:05;100952.58;;;6.61;75.51
54554;BME280;40450;55.848;-3.572;2023-02-13T09:16:35;100949.62;;;6.53;76.76
54554;BME280;40450;55.848;-3.572;2023-02-13T09:19:06;100950.85;;;6.71;76.65
54554;BME280;40450;55.848;-3.572;2023-02-13T09:21:36;100951.09;;;6.96;76.47
54554;BME280;40450;55.848;-3.572;2023-02-13T09:24:08;100965.51;;;7.62;76.19
54554;BME280;40450;55.848;-3.572;2023-02-13T09:26:38;100964.20;;;8.40;74.11
54554;BME280;40450;55.848;-3.572;2023-02-13T09:29:08;100959.54;;;8.45;71.63
54554;BME280;40450;55.848;-3.572;2023-02-13T09:31:39;100958.03;;;8.97;72.36
54554;BME280;40450;55.848;-3.572;2023-02-13T09:34:09;100957.62;;;9.54;72.41
54554;BME280;40450;55.848;-3.572;2023-02-13T09:36:40;100946.94;;;10.03;71.81
54554;BME280;40450;55.848;-3.572;2023-02-13T09:39:10;100942.08;;;10.32;70.96
54554;BME280;40450;55.848;-3.572;2023-02-13T09:41:42;100942.81;;;10.41;70.30
54554;BME280;40450;55.848;-3.572;2023-02-13T09:44:15;100940.74;;;10.78;69.69
54554;BME280;40450;55.848;-3.572;2023-02-13T09:46:42;100933.56;;;10.64;66.75
54554;BME280;40450;55.848;-3.572;2023-02-13T09:49:14;100940.54;;;10.57;67.11
54554;BME280;40450;55.848;-3.572;2023-02-13T09:51:43;100942.69;;;9.92;67.24
54554;BME280;40450;55.848;-3.572;2023-02-13T09:54:14;100948.95;;;10.10;67.23
54554;BME280;40450;55.848;-3.572;2023-02-13T09:56:49;100950.20;;;9.43;68.50
54554;BME280;40450;55.848;-3.572;2023-02-13T09:59:26;100953.68;;;10.16;67.59
54554;BME280;40450;55.848;-3.572;2023-02-13T10:01:47;100956.58;;;9.14;68.16
54554;BME280;40450;55.848;-3.572;2023-02-13T10:04:23;100957.04;;;9.92;68.33
54554;BME280;40450;55.848;-3.572;2023-02-13T10:06:47;100953.87;;;10.17;67.55
54554;BME280;40450;55.848;-3.572;2023-02-13T10:09:21;100944.59;;;10.38;66.08
54554;BME280;40450;55.848;-3.572;2023-02-13T10:14:18;100943.02;;;10.97;66.50
54554;BME280;40450;55.848;-3.572;2023-02-13T10:16:50;100941.44;;;11.01;63.89
54554;BME280;40450;55.848;-3.572;2023-02-13T10:19:29;100947.82;;;10.21;65.57
54554;BME280;40450;55.848;-3.572;2023-02-13T10:21:51;100937.49;;;10.64;66.18
54554;BME280;40450;55.848;-3.572;2023-02-13T10:24:28;100944.44;;;10.91;66.07
54554;BME280;40450;55.848;-3.572;2023-02-13T10:26:49;100942.72;;;11.20;64.24
54554;BME280;40450;55.848;-3.572;2023-02-13T10:29:22;100942.71;;;11.55;64.27
54554;BME280;40450;55.848;-3.572;2023-02-13T10:31:51;100945.87;;;11.06;65.70
54554;BME280;40450;55.848;-3.572;2023-02-13T10:34:23;100942.47;;;11.31;64.16
54554;BME280;40450;55.848;-3.572;2023-02-13T10:36:51;100942.84;;;11.21;65.00
54554;BME280;40450;55.848;-3.572;2023-02-13T10:39:27;100940.03;;;11.47;65.12
54554;BME280;40450;55.848;-3.572;2023-02-13T10:41:54;100938.94;;;11.68;63.95
54554;BME280;40450;55.848;-3.572;2023-02-13T10:44:33;100938.08;;;10.77;64.50
54554;BME280;40450;55.848;-3.572;2023-02-13T10:47:01;100944.58;;;11.04;63.87
54554;BME280;40450;55.848;-3.572;2023-02-13T10:49:33;100943.92;;;10.60;65.02
54554;BME280;40450;55.848;-3.572;2023-02-13T10:52:01;100941.97;;;10.98;65.26
54554;BME280;40450;55.848;-3.572;2023-02-13T10:54:33;100941.63;;;11.18;63.26
54554;BME280;40450;55.848;-3.572;2023-02-13T10:56:59;100962.92;;;9.35;67.78
54554;BME280;40450;55.848;-3.572;2023-02-13T10:59:35;100958.82;;;9.22;68.29
54554;BME280;40450;55.848;-3.572;2023-02-13T11:01:56;100965.91;;;8.80;70.35
54554;BME280;40450;55.848;-3.572;2023-02-13T11:04:26;100965.12;;;8.15;72.12
54554;BME280;40450;55.848;-3.572;2023-02-13T11:06:58;100959.15;;;7.84;73.10
54554;BME280;40450;55.848;-3.572;2023-02-13T11:09:28;100958.18;;;8.64;70.92
54554;BME280;40450;55.848;-3.572;2023-02-13T11:11:56;100960.01;;;9.52;70.11
54554;BME280;40450;55.848;-3.572;2023-02-13T11:14:26;100960.10;;;9.35;69.97
54554;BME280;40450;55.848;-3.572;2023-02-13T11:17:00;100953.64;;;9.07;70.57
54554;BME280;40450;55.848;-3.572;2023-02-13T11:19:31;100959.05;;;9.50;69.73
54554;BME280;40450;55.848;-3.572;2023-02-13T11:22:01;100955.86;;;9.65;69.10
54554;BME280;40450;55.848;-3.572;2023-02-13T11:24:29;100951.19;;;8.53;70.89
54554;BME280;40450;55.848;-3.572;2023-02-13T11:27:00;100946.23;;;8.74;70.99
54554;BME280;40450;55.848;-3.572;2023-02-13T11:29:30;100947.83;;;8.49;71.51
54554;BME280;40450;55.848;-3.572;2023-02-13T11:32:05;100949.59;;;8.52;70.57
54554;BME280;40450;55.848;-3.572;2023-02-13T11:34:30;100954.53;;;9.40;70.03
54554;BME280;40450;55.848;-3.572;2023-02-13T11:39:29;100939.08;;;10.06;68.78
54554;BME280;40450;55.848;-3.572;2023-02-13T11:41:59;100938.86;;;10.14;67.47
54554;BME280;40450;55.848;-3.572;2023-02-13T11:44:31;100942.02;;;10.44;65.96
54554;BME280;40450;55.848;-3.572;2023-02-13T11:47:00;100943.48;;;8.36;70.49
54554;BME280;40450;55.848;-3.572;2023-02-13T11:49:34;100942.66;;;9.88;67.89
54554;BME280;40450;55.848;-3.572;2023-02-13T11:52:02;100936.17;;;10.75;68.66
54554;BME280;40450;55.848;-3.572;2023-02-13T11:54:32;100933.20;;;11.00;67.24
54554;BME280;40450;55.848;-3.572;2023-02-13T11:57:08;100929.91;;;11.45;66.42
54554;BME280;40450;55.848;-3.572;2023-02-13T11:59:39;100922.64;;;11.64;64.11
54554;BME280;40450;55.848;-3.572;2023-02-13T12:02:12;100922.25;;;11.49;64.55
54554;BME280;40450;55.848;-3.572;2023-02-13T12:04:32;100921.62;;;11.46;65.76
54554;BME280;40450;55.848;-3.572;2023-02-13T12:07:09;100920.36;;;10.40;66.61
54554;BME280;40450;55.848;-3.572;2023-02-13T12:09:33;100921.54;;;10.09;67.77
54554;BME280;40450;55.848;-3.572;2023-02-13T12:12:04;100926.34;;;9.66;68.12
54554;BME280;40450;55.848;-3.572;2023-02-13T12:14:39;100917.13;;;9.37;69.43
54554;BME280;40450;55.848;-3.572;2023-02-13T12:17:07;100914.72;;;8.99;71.20
54554;BME280;40450;55.848;-3.572;2023-02-13T12:19:40;100912.92;;;9.64;70.07
54554;BME280;40450;55.848;-3.572;2023-02-13T12:22:14;100902.83;;;9.03;70.40
54554;BME280;40450;55.848;-3.572;2023-02-13T12:24:47;100900.37;;;8.78;70.89
54554;BME280;40450;55.848;-3.572;2023-02-13T12:27:09;100899.65;;;6.86;76.16
54554;BME280;40450;55.848;-3.572;2023-02-13T12:29:47;100889.42;;;7.01;75.99
54554;BME280;40450;55.848;-3.572;2023-02-13T12:32:17;100890.42;;;7.29;75.45
54554;BME280;40450;55.848;-3.572;2023-02-13T12:34:50;100894.76;;;6.46;78.02
54554;BME280;40450;55.848;-3.572;2023-02-13T12:37:18;100899.87;;;5.05;82.16
54554;BME280;40450;55.848;-3.572;2023-02-13T12:39:40;100905.91;;;4.65;83.32
54554;BME280;40450;55.848;-3.572;2023-02-13T12:42:20;100903.50;;;5.38;81.81
54554;BME280;40450;55.848;-3.572;2023-02-13T12:44:48;100901.91;;;5.46;81.67
54554;BME280;40450;55.848;-3.572;2023-02-13T12:47:15;100897.33;;;5.48;81.69
54554;BME280;40450;55.848;-3.572;2023-02-13T12:52:25;100893.38;;;6.34;80.30
54554;BME280;40450;55.848;-3.572;2023-02-13T12:54:49;100895.68;;;5.94;81.06
54554;BME280;40450;55.848;-3.572;2023-02-13T12:57:20;100901.17;;;5.77;81.39
54554;BME280;40450;55.848;-3.572;2023-02-13T12:59:51;100899.45;;;5.25;82.72
54554;BME280;40450;55.848;-3.572;2023-02-13T13:02:29;100891.20;;;5.71;82.09
54554;BME280;40450;55.848;-3.572;2023-02-13T13:04:52;100888.28;;;6.67;79.80
54554;BME280;40450;55.848;-3.572;2023-02-13T13:07:26;100886.94;;;5.98;80.93
54554;BME280;40450;55.848;-3.572;2023-02-13T13:09:54;100885.54;;;6.42;80.29
54554;BME280;40450;55.848;-3.572;2023-02-13T13:12:23;100888.37;;;5.70;82.06
54554;BME280;40450;55.848;-3.572;2023-02-13T13:14:52;100888.32;;;5.81;81.40
54554;BME280;40450;55.848;-3.572;2023-02-13T13:17:26;100892.56;;;6.67;80.29
54554;BME280;40450;55.848;-3.572;2023-02-13T13:19:50;100887.25;;;6.38;79.93